Wetterdaten: Woche 22.07.02 - 28.07.02 (KW30)
Datum Zeit Temperatur Luftfeuchte Luftdruck Regenmenge Wind Richtung Taupunkt Windchill
22.07.2002 00:00 15.7 C 89 % 1017.0 hPa 0.0 l/m 0.7 km/h (0 Bft) O-SO 14.0 C 15.7 C
22.07.2002 01:00 15.7 C 87 % 1017.8 hPa 0.0 l/m 0.0 km/h (0 Bft) N 13.4 C 15.7 C
22.07.2002 02:00 14.8 C 90 % 1018.0 hPa 0.0 l/m 0.0 km/h (0 Bft) N 13.2 C 14.8 C
22.07.2002 03:00 13.2 C 96 % 1018.0 hPa 0.0 l/m 0.0 km/h (0 Bft) N 12.7 C 13.2 C
22.07.2002 04:00 12.3 C 97 % 1018.3 hPa 0.0 l/m 0.0 km/h (0 Bft) N 11.9 C 12.3 C
22.07.2002 05:00 11.8 C 99 % 1019.0 hPa 0.0 l/m 0.3 km/h (0 Bft) O 11.6 C 11.8 C
22.07.2002 06:00 12.0 C 97 % 1019.1 hPa 0.0 l/m 0.3 km/h (0 Bft) O 11.5 C 12.0 C
22.07.2002 07:00 12.9 C 93 % 1019.9 hPa 0.0 l/m 0.0 km/h (0 Bft) N 11.8 C 12.9 C
22.07.2002 08:00 13.8 C 85 % 1020.1 hPa 0.0 l/m 0.2 km/h (0 Bft) N 11.3 C 13.8 C
22.07.2002 09:00 15.8 C 74 % 1020.1 hPa 0.0 l/m 0.1 km/h (0 Bft) W-NW 11.1 C 15.8 C
22.07.2002 10:00 18.1 C 57 % 1020.1 hPa 0.0 l/m 0.6 km/h (0 Bft) N-NW 9.4 C 18.1 C
22.07.2002 11:00 19.8 C 52 % 1019.8 hPa 0.0 l/m 7.1 km/h (2 Bft) NW 9.5 C 19.8 C
22.07.2002 12:00 21.0 C 45 % 1020.0 hPa 0.0 l/m 8.3 km/h (2 Bft) NW 8.7 C 21.0 C
22.07.2002 13:00 21.8 C 43 % 1019.0 hPa 0.0 l/m 12.7 km/h (3 Bft) NW 8.5 C 21.8 C
22.07.2002 14:00 23.2 C 39 % 1019.0 hPa 0.0 l/m 8.5 km/h (2 Bft) W-NW 8.6 C 23.2 C
22.07.2002 15:00 23.8 C 40 % 1018.3 hPa 0.0 l/m 9.2 km/h (2 Bft) NW 9.4 C 23.8 C
22.07.2002 16:00 24.2 C 38 % 1018.0 hPa 0.0 l/m 12.0 km/h (2 Bft) NW 8.9 C 24.2 C
22.07.2002 17:00 23.5 C 38 % 1017.7 hPa 0.0 l/m 7.2 km/h (2 Bft) NW 8.5 C 23.5 C
22.07.2002 18:00 23.1 C 40 % 1017.0 hPa 0.0 l/m 4.0 km/h (1 Bft) NW 8.5 C 23.1 C
22.07.2002 19:00 21.9 C 45 % 1017.0 hPa 0.0 l/m 3.1 km/h (1 Bft) NW 9.3 C 21.9 C
22.07.2002 20:00 20.6 C 51 % 1017.0 hPa 0.0 l/m 1.3 km/h (1 Bft) SO 9.9 C 20.6 C
22.07.2002 21:00 18.3 C 62 % 1017.2 hPa 0.0 l/m 5.3 km/h (1 Bft) O-SO 10.7 C 18.3 C
22.07.2002 22:00 15.6 C 75 % 1018.0 hPa 0.0 l/m 2.2 km/h (1 Bft) O-SO 11.2 C 15.6 C
22.07.2002 23:00 14.0 C 85 % 1018.0 hPa 0.0 l/m 2.0 km/h (1 Bft) O-SO 11.6 C 14.0 C
23.07.2002 00:00 12.9 C 91 % 1018.0 hPa 0.0 l/m 0.7 km/h (0 Bft) O-SO 11.5 C 12.9 C
23.07.2002 01:00 12.2 C 94 % 1018.1 hPa 0.0 l/m 0.0 km/h (0 Bft) N 11.2 C 12.2 C
23.07.2002 02:00 11.5 C 97 % 1018.0 hPa 0.0 l/m 0.8 km/h (0 Bft) O-SO 11.0 C 11.5 C
23.07.2002 03:00 10.7 C 98 % 1018.0 hPa 0.0 l/m 0.8 km/h (0 Bft) O-SO 10.4 C 10.7 C
23.07.2002 04:00 10.2 C 99 % 1017.3 hPa 0.0 l/m 1.3 km/h (1 Bft) O-SO 10.2 C 10.2 C
23.07.2002 05:00 9.8 C 100 % 1017.1 hPa 0.0 l/m 1.0 km/h (0 Bft) O-SO 9.7 C 9.8 C
23.07.2002 06:00 9.7 C 100 % 1017.3 hPa 0.0 l/m 0.6 km/h (0 Bft) O-SO 9.6 C 9.7 C
23.07.2002 07:00 11.2 C 96 % 1017.9 hPa 0.0 l/m 0.0 km/h (0 Bft) N 10.6 C 11.2 C
23.07.2002 08:00 12.9 C 89 % 1017.6 hPa 0.0 l/m 0.0 km/h (0 Bft) N 11.0 C 12.9 C
23.07.2002 09:00 15.3 C 78 % 1017.0 hPa 0.0 l/m 0.4 km/h (0 Bft) NW 11.4 C 15.3 C
23.07.2002 10:00 18.2 C 62 % 1017.0 hPa 0.0 l/m 0.5 km/h (0 Bft) W-NW 10.8 C 18.2 C
23.07.2002 11:00 20.6 C 50 % 1016.6 hPa 0.0 l/m 1.3 km/h (1 Bft) W-NW 9.7 C 20.6 C
23.07.2002 12:00 22.6 C 43 % 1015.9 hPa 0.0 l/m 1.2 km/h (1 Bft) W-NW 9.4 C 22.6 C
23.07.2002 13:00 24.1 C 39 % 1015.3 hPa 0.0 l/m 5.4 km/h (1 Bft) W-NW 9.5 C 24.1 C
23.07.2002 14:00 25.4 C 35 % 1014.9 hPa 0.0 l/m 7.2 km/h (2 Bft) NW 8.7 C 25.4 C
23.07.2002 15:00 26.6 C 32 % 1014.4 hPa 0.0 l/m 9.6 km/h (2 Bft) NW 8.4 C 26.6 C
23.07.2002 16:00 27.6 C 31 % 1013.9 hPa 0.0 l/m 10.2 km/h (2 Bft) NW 8.8 C 27.6 C
23.07.2002 17:00 26.9 C 29 % 1013.9 hPa 0.0 l/m 13.6 km/h (3 Bft) NW 7.3 C 26.9 C
23.07.2002 18:00 24.7 C 36 % 1013.9 hPa 0.0 l/m 15.3 km/h (3 Bft) NW 8.4 C 24.7 C
23.07.2002 19:00 24.1 C 44 % 1013.9 hPa 0.0 l/m 9.1 km/h (2 Bft) NW 11.0 C 24.1 C
23.07.2002 20:00 22.7 C 49 % 1013.9 hPa 0.0 l/m 2.0 km/h (1 Bft) W-NW 11.5 C 22.7 C
23.07.2002 21:00 20.5 C 57 % 1014.2 hPa 0.0 l/m 1.6 km/h (1 Bft) O 11.7 C 20.5 C
23.07.2002 22:00 18.0 C 69 % 1014.9 hPa 0.0 l/m 7.0 km/h (2 Bft) O-SO 12.3 C 18.0 C
23.07.2002 23:00 17.0 C 76 % 1014.9 hPa 0.0 l/m 6.1 km/h (2 Bft) O-SO 12.6 C 17.0 C
24.07.2002 00:00 15.9 C 83 % 1014.9 hPa 0.0 l/m 5.4 km/h (1 Bft) O-SO 13.0 C 15.9 C
24.07.2002 01:00 14.7 C 89 % 1014.9 hPa 0.0 l/m 2.1 km/h (1 Bft) O-SO 12.9 C 14.7 C
24.07.2002 02:00 14.3 C 90 % 1014.9 hPa 0.0 l/m 0.3 km/h (0 Bft) O-SO 12.7 C 14.3 C
24.07.2002 03:00 14.6 C 89 % 1014.9 hPa 0.0 l/m 1.0 km/h (0 Bft) O-SO 12.8 C 14.6 C
24.07.2002 04:00 14.4 C 92 % 1014.9 hPa 0.0 l/m 0.4 km/h (0 Bft) O-SO 13.2 C 14.4 C
24.07.2002 05:00 14.9 C 89 % 1014.9 hPa 0.0 l/m 1.8 km/h (1 Bft) O-SO 13.1 C 14.9 C
24.07.2002 06:00 15.0 C 88 % 1014.9 hPa 0.0 l/m 2.2 km/h (1 Bft) O-SO 13.0 C 15.0 C
24.07.2002 07:00 15.9 C 86 % 1014.9 hPa 0.0 l/m 0.7 km/h (0 Bft) O-SO 13.5 C 15.9 C
24.07.2002 08:00 17.8 C 76 % 1014.9 hPa 0.0 l/m 0.4 km/h (0 Bft) O-SO 13.5 C 17.8 C
24.07.2002 09:00 19.7 C 66 % 1014.9 hPa 0.0 l/m 1.0 km/h (0 Bft) SO 13.2 C 19.7 C
24.07.2002 10:00 21.2 C 56 % 1014.7 hPa 0.0 l/m 14.0 km/h (3 Bft) NW 12.0 C 21.2 C
24.07.2002 11:00 22.2 C 52 % 1013.9 hPa 0.0 l/m 18.0 km/h (3 Bft) NW 11.9 C 22.2 C
24.07.2002 12:00 21.4 C 55 % 1014.2 hPa 0.0 l/m 27.0 km/h (4 Bft) NW 12.0 C 21.4 C
24.07.2002 13:00 18.9 C 65 % 1014.9 hPa 0.0 l/m 30.0 km/h (5 Bft) NW 12.1 C 18.9 C
24.07.2002 14:00 20.0 C 61 % 1014.9 hPa 0.0 l/m 36.2 km/h (5 Bft) NW 12.1 C 20.0 C
24.07.2002 15:00 20.3 C 57 % 1015.5 hPa 0.0 l/m 36.6 km/h (5 Bft) W-NW 11.6 C 20.3 C
24.07.2002 16:00 21.2 C 55 % 1015.8 hPa 0.0 l/m 28.1 km/h (4 Bft) W-NW 11.8 C 21.2 C
24.07.2002 17:00 21.4 C 55 % 1015.1 hPa 0.0 l/m 31.5 km/h (5 Bft) NW 11.9 C 21.4 C
24.07.2002 18:00 21.5 C 59 % 1015.3 hPa 0.0 l/m 28.6 km/h (4 Bft) NW 13.0 C 21.5 C
24.07.2002 19:00 19.9 C 62 % 1015.9 hPa 0.0 l/m 20.7 km/h (4 Bft) NW 12.5 C 19.9 C
24.07.2002 20:00 18.9 C 66 % 1015.9 hPa 0.0 l/m 10.5 km/h (2 Bft) NW 12.4 C 18.9 C
24.07.2002 21:00 18.4 C 68 % 1016.3 hPa 0.0 l/m 9.3 km/h (2 Bft) NW 12.3 C 18.4 C
24.07.2002 22:00 17.6 C 73 % 1017.0 hPa 0.0 l/m 2.3 km/h (1 Bft) NW 12.6 C 17.6 C
24.07.2002 23:00 17.4 C 78 % 1017.0 hPa 0.0 l/m 10.0 km/h (2 Bft) NW 13.5 C 17.4 C
25.07.2002 00:00 17.0 C 80 % 1017.0 hPa 0.0 l/m 2.0 km/h (1 Bft) O-SO 13.4 C 17.0 C
25.07.2002 01:00 17.1 C 75 % 1017.1 hPa 0.0 l/m 5.1 km/h (1 Bft) NW 12.6 C 17.1 C
25.07.2002 02:00 16.8 C 78 % 1017.0 hPa 0.0 l/m 5.4 km/h (1 Bft) NW 12.8 C 16.8 C
25.07.2002 03:00 16.4 C 77 % 1017.0 hPa 0.0 l/m 3.9 km/h (1 Bft) W-NW 12.4 C 16.4 C
25.07.2002 04:00 15.4 C 83 % 1017.0 hPa 0.0 l/m 0.2 km/h (0 Bft) SO 12.5 C 15.4 C
25.07.2002 05:00 14.2 C 89 % 1017.0 hPa 0.0 l/m 1.4 km/h (1 Bft) SO 12.5 C 14.2 C
25.07.2002 06:00 14.5 C 89 % 1017.0 hPa 0.0 l/m 0.6 km/h (0 Bft) SO 12.6 C 14.5 C
25.07.2002 07:00 15.3 C 83 % 1017.0 hPa 0.0 l/m 1.2 km/h (1 Bft) O-SO 12.4 C 15.3 C
25.07.2002 08:00 16.2 C 78 % 1017.0 hPa 0.0 l/m 0.3 km/h (0 Bft) S-SW 12.3 C 16.2 C
25.07.2002 09:00 16.9 C 74 % 1017.0 hPa 0.0 l/m 3.6 km/h (1 Bft) W-NW 12.3 C 16.9 C
25.07.2002 10:00 17.6 C 70 % 1017.0 hPa 0.0 l/m 17.9 km/h (3 Bft) NW 12.2 C 17.6 C
25.07.2002 11:00 18.2 C 68 % 1017.0 hPa 0.0 l/m 11.5 km/h (2 Bft) W-NW 12.3 C 18.2 C
25.07.2002 12:00 19.0 C 65 % 1017.0 hPa 0.0 l/m 8.8 km/h (2 Bft) NW 12.2 C 19.0 C
25.07.2002 13:00 20.4 C 58 % 1017.0 hPa 0.0 l/m 7.2 km/h (2 Bft) NW 11.8 C 20.4 C
25.07.2002 14:00 19.4 C 62 % 1016.6 hPa 0.0 l/m 9.0 km/h (2 Bft) NW 12.0 C 19.4 C
25.07.2002 15:00 19.5 C 66 % 1016.4 hPa 0.0 l/m 2.0 km/h (1 Bft) W 12.9 C 19.5 C
25.07.2002 16:00 20.1 C 58 % 1015.9 hPa 0.0 l/m 16.8 km/h (3 Bft) NW 11.5 C 20.1 C
25.07.2002 17:00 19.3 C 54 % 1015.9 hPa 0.0 l/m 16.9 km/h (3 Bft) NW 9.7 C 19.3 C
25.07.2002 18:00 20.5 C 53 % 1015.9 hPa 0.0 l/m 10.0 km/h (2 Bft) NW 10.7 C 20.5 C
25.07.2002 19:00 19.4 C 57 % 1015.9 hPa 0.0 l/m 7.5 km/h (2 Bft) NW 10.7 C 19.4 C
25.07.2002 20:00 19.4 C 63 % 1016.3 hPa 0.0 l/m 5.0 km/h (1 Bft) NW 12.3 C 19.4 C
25.07.2002 21:00 18.3 C 62 % 1017.0 hPa 0.0 l/m 5.1 km/h (1 Bft) W-NW 10.8 C 18.3 C
25.07.2002 22:00 17.9 C 61 % 1017.5 hPa 0.0 l/m 1.8 km/h (1 Bft) W 10.1 C 17.9 C
25.07.2002 23:00 17.0 C 63 % 1018.0 hPa 0.0 l/m 0.2 km/h (0 Bft) NW 10.0 C 17.0 C
26.07.2002 00:00 16.3 C 66 % 1018.0 hPa 0.0 l/m 0.0 km/h (0 Bft) N 10.0 C 16.3 C
26.07.2002 01:00 15.8 C 73 % 1018.0 hPa 0.0 l/m 1.5 km/h (1 Bft) SO 10.9 C 15.8 C
26.07.2002 02:00 15.0 C 78 % 1018.0 hPa 0.0 l/m 2.6 km/h (1 Bft) SO 11.1 C 15.0 C
26.07.2002 03:00 14.0 C 85 % 1018.0 hPa 0.0 l/m 1.8 km/h (1 Bft) SO 11.5 C 14.0 C
26.07.2002 04:00 13.3 C 88 % 1018.0 hPa 0.0 l/m 0.2 km/h (0 Bft) SO 11.4 C 13.3 C
26.07.2002 05:00 13.4 C 90 % 1018.1 hPa 0.0 l/m 0.0 km/h (0 Bft) N 11.8 C 13.4 C
26.07.2002 06:00 13.4 C 92 % 1019.0 hPa 0.0 l/m 1.3 km/h (1 Bft) SO 12.2 C 13.4 C
26.07.2002 07:00 14.1 C 89 % 1019.0 hPa 0.0 l/m 0.0 km/h (0 Bft) N 12.4 C 14.1 C
26.07.2002 08:00 14.7 C 87 % 1019.0 hPa 0.0 l/m 0.0 km/h (0 Bft) N 12.5 C 14.7 C
26.07.2002 09:00 15.4 C 85 % 1019.3 hPa 0.0 l/m 0.3 km/h (0 Bft) W 12.8 C 15.4 C
26.07.2002 10:00 16.4 C 80 % 1020.1 hPa 0.0 l/m 0.7 km/h (0 Bft) W-NW 12.9 C 16.4 C
26.07.2002 11:00 18.2 C 70 % 1020.1 hPa 0.0 l/m 0.7 km/h (0 Bft) O 12.7 C 18.2 C
26.07.2002 12:00 19.4 C 62 % 1019.9 hPa 0.0 l/m 2.1 km/h (1 Bft) O-SO 12.1 C 19.4 C
26.07.2002 13:00 19.8 C 60 % 1020.1 hPa 0.0 l/m 1.0 km/h (0 Bft) O-SO 11.7 C 19.8 C
26.07.2002 14:00 20.0 C 57 % 1019.9 hPa 0.0 l/m 0.5 km/h (0 Bft) NW 11.2 C 20.0 C
26.07.2002 15:00 21.3 C 55 % 1019.0 hPa 0.0 l/m 1.4 km/h (1 Bft) W-NW 11.9 C 21.3 C
26.07.2002 16:00 21.1 C 55 % 1019.0 hPa 0.0 l/m 0.6 km/h (0 Bft) W-SW 11.8 C 21.1 C
26.07.2002 17:00 20.4 C 60 % 1019.0 hPa 0.0 l/m 2.6 km/h (1 Bft) O-SO 12.4 C 20.4 C
26.07.2002 18:00 19.7 C 64 % 1019.0 hPa 0.0 l/m 0.0 km/h (0 Bft) N 12.6 C 19.7 C
26.07.2002 19:00 19.5 C 71 % 1019.0 hPa 0.0 l/m 0.0 km/h (0 Bft) N 14.1 C 19.5 C
26.07.2002 20:00 19.0 C 74 % 1019.0 hPa 0.0 l/m 4.1 km/h (1 Bft) O-SO 14.2 C 19.0 C
26.07.2002 21:00 18.0 C 78 % 1019.5 hPa 0.0 l/m 6.2 km/h (2 Bft) O-SO 14.1 C 18.0 C
26.07.2002 22:00 17.3 C 82 % 1020.1 hPa 0.0 l/m 3.6 km/h (1 Bft) O-SO 14.1 C 17.3 C
26.07.2002 23:00 17.0 C 82 % 1020.1 hPa 0.0 l/m 0.4 km/h (0 Bft) O-SO 13.9 C 17.0 C
27.07.2002 00:00 16.7 C 85 % 1020.1 hPa 0.0 l/m 0.0 km/h (0 Bft) N 14.2 C 16.7 C
27.07.2002 01:00 16.4 C 87 % 1020.1 hPa 0.0 l/m 0.0 km/h (0 Bft) N 14.3 C 16.4 C
27.07.2002 02:00 16.4 C 89 % 1020.1 hPa 0.0 l/m 0.0 km/h (0 Bft) N 14.5 C 16.4 C
27.07.2002 03:00 16.0 C 90 % 1020.1 hPa 0.0 l/m 0.0 km/h (0 Bft) N 14.3 C 16.0 C
27.07.2002 04:00 15.6 C 92 % 1019.6 hPa 0.0 l/m 0.0 km/h (0 Bft) N 14.2 C 15.6 C
27.07.2002 05:00 14.4 C 96 % 1019.6 hPa 0.0 l/m 0.2 km/h (0 Bft) O-SO 13.8 C 14.4 C
27.07.2002 06:00 13.9 C 97 % 1019.9 hPa 0.0 l/m 0.3 km/h (0 Bft) O-SO 13.4 C 13.9 C
27.07.2002 07:00 14.5 C 96 % 1020.1 hPa 0.0 l/m 0.0 km/h (0 Bft) N 13.8 C 14.5 C
27.07.2002 08:00 16.6 C 84 % 1020.1 hPa 0.0 l/m 0.8 km/h (0 Bft) O-NO 13.9 C 16.6 C
27.07.2002 09:00 18.8 C 73 % 1020.1 hPa 0.0 l/m 1.7 km/h (1 Bft) O-SO 13.8 C 18.8 C
27.07.2002 10:00 21.0 C 62 % 1020.0 hPa 0.0 l/m 6.0 km/h (2 Bft) NO 13.4 C 21.0 C
27.07.2002 11:00 22.8 C 54 % 1019.3 hPa 0.0 l/m 9.5 km/h (2 Bft) O 13.1 C 22.8 C
27.07.2002 12:00 24.5 C 50 % 1019.0 hPa 0.0 l/m 13.6 km/h (3 Bft) O-SO 13.4 C 24.5 C
27.07.2002 13:00 26.0 C 47 % 1019.0 hPa 0.0 l/m 10.9 km/h (2 Bft) O 13.7 C 26.0 C
27.07.2002 14:00 27.2 C 45 % 1018.2 hPa 0.0 l/m 9.1 km/h (2 Bft) O-SO 14.4 C 27.2 C
27.07.2002 15:00 27.2 C 45 % 1018.0 hPa 0.0 l/m 6.2 km/h (2 Bft) O 14.3 C 27.2 C
27.07.2002 16:00 27.8 C 44 % 1018.0 hPa 0.0 l/m 9.9 km/h (2 Bft) O-SO 14.4 C 27.8 C
27.07.2002 17:00 27.6 C 44 % 1018.0 hPa 0.0 l/m 16.1 km/h (3 Bft) O-SO 14.4 C 27.6 C
27.07.2002 18:00 26.8 C 46 % 1017.1 hPa 0.0 l/m 11.4 km/h (2 Bft) O-SO 14.3 C 26.8 C
27.07.2002 19:00 25.7 C 50 % 1017.0 hPa 0.0 l/m 13.4 km/h (3 Bft) O-SO 14.5 C 25.7 C
27.07.2002 20:00 24.0 C 56 % 1017.0 hPa 0.0 l/m 6.4 km/h (2 Bft) O-SO 14.6 C 24.0 C
27.07.2002 21:00 21.5 C 65 % 1017.1 hPa 0.0 l/m 2.7 km/h (1 Bft) O-SO 14.7 C 21.5 C
27.07.2002 22:00 19.9 C 70 % 1018.0 hPa 0.0 l/m 0.1 km/h (0 Bft) O 14.3 C 19.9 C
27.07.2002 23:00 18.6 C 78 % 1018.0 hPa 0.0 l/m 0.1 km/h (0 Bft) N 14.6 C 18.6 C
28.07.2002 00:00 17.6 C 83 % 1018.0 hPa 0.0 l/m 1.6 km/h (1 Bft) O 14.6 C 17.6 C
28.07.2002 01:00 17.0 C 83 % 1018.0 hPa 0.0 l/m 1.3 km/h (1 Bft) O 14.1 C 17.0 C
28.07.2002 02:00 16.4 C 86 % 1018.0 hPa 0.0 l/m 0.3 km/h (0 Bft) O 14.0 C 16.4 C
28.07.2002 03:00 15.1 C 93 % 1018.0 hPa 0.0 l/m 2.8 km/h (1 Bft) O-SO 13.9 C 15.1 C
28.07.2002 04:00 14.3 C 96 % 1018.0 hPa 0.0 l/m 2.4 km/h (1 Bft) O-SO 13.6 C 14.3 C
28.07.2002 05:00 14.0 C 95 % 1018.0 hPa 0.0 l/m 0.0 km/h (0 Bft) N 13.2 C 14.0 C
28.07.2002 06:00 13.6 C 98 % 1018.0 hPa 0.0 l/m 0.4 km/h (0 Bft) O-SO 13.3 C 13.6 C
28.07.2002 07:00 14.8 C 93 % 1018.2 hPa 0.0 l/m 0.0 km/h (0 Bft) N 13.7 C 14.8 C
28.07.2002 08:00 16.6 C 86 % 1019.0 hPa 0.0 l/m 0.0 km/h (0 Bft) N 14.3 C 16.6 C
28.07.2002 09:00 18.2 C 79 % 1019.0 hPa 0.0 l/m 6.8 km/h (2 Bft) O-SO 14.6 C 18.2 C
28.07.2002 10:00 19.4 C 74 % 1019.0 hPa 0.0 l/m 13.0 km/h (3 Bft) O-SO 14.6 C 19.4 C
28.07.2002 11:00 21.4 C 67 % 1019.0 hPa 0.0 l/m 14.0 km/h (3 Bft) O-SO 15.0 C 21.4 C
28.07.2002 12:00 22.8 C 64 % 1018.9 hPa 0.0 l/m 13.3 km/h (3 Bft) O-SO 15.6 C 22.8 C
28.07.2002 13:00 24.2 C 60 % 1018.0 hPa 0.0 l/m 6.0 km/h (2 Bft) O-SO 15.9 C 24.2 C
28.07.2002 14:00 26.1 C 55 % 1018.0 hPa 0.0 l/m 4.3 km/h (1 Bft) O-SO 16.3 C 26.1 C
28.07.2002 15:00 27.4 C 51 % 1018.0 hPa 0.0 l/m 1.9 km/h (1 Bft) N-NW 16.3 C 27.4 C
28.07.2002 16:00 28.3 C 51 % 1017.0 hPa 0.0 l/m 0.9 km/h (0 Bft) W-NW 17.1 C 28.3 C
28.07.2002 17:00 28.6 C 49 % 1017.0 hPa 0.0 l/m 2.4 km/h (1 Bft) O-SO 16.8 C 28.6 C
28.07.2002 18:00 28.4 C 48 % 1017.0 hPa 0.0 l/m 2.0 km/h (1 Bft) O-SO 16.4 C 28.4 C
28.07.2002 19:00 27.8 C 51 % 1017.0 hPa 0.0 l/m 0.2 km/h (0 Bft) O-SO 16.6 C 27.8 C
28.07.2002 20:00 25.8 C 61 % 1017.0 hPa 0.0 l/m 2.9 km/h (1 Bft) O-SO 17.5 C 25.8 C
28.07.2002 21:00 22.3 C 73 % 1017.0 hPa 0.0 l/m 4.2 km/h (1 Bft) O-SO 17.1 C 22.3 C
28.07.2002 22:00 20.4 C 79 % 1017.7 hPa 0.0 l/m 3.1 km/h (1 Bft) O-SO 16.5 C 20.4 C
28.07.2002 23:00 18.8 C 86 % 1018.0 hPa 0.0 l/m 1.7 km/h (1 Bft) O 16.5 C 18.8 C
Min-Datum _ 23.07.02 23.07.02 23.07.02 - 22.07.02 - 23.07.02 23.07.02
_ Min-Zeit 06:19 16:40 15:31 - 00:00 - 17:04 06:19
Minimum _ 9.5 C 25 % 1013.9 hPa - 0.0 km/h (0 Bft) - 5.2 C 9.5 C
Max-Datum _ 28.07.02 22.07.02 22.07.02 22.07.02 24.07.02 - 28.07.02 28.07.02
_ Max-Zeit 17:42 05:45 06:57 00:00 15:29 - 16:45 17:42
Maximum _ 28.8 C 100 % 1020.1 hPa 0.0 l/m 53.5 km/h
W-NW (7 Bft)
- 18.2 C 28.8 C
Durchschnitt _ 18.7 C 70 % 1017.5 hPa #0.0 l/m 5.2 km/h (1 Bft) O-SO 12.5 C 18.7 C

Durchschnitt Minimum Temp.17.8 C
Durchschnitt Maximum Temp.19.5 C
© Kaiko 2002